Time;durP1;ratioP1;P1;durP2;ratioP2;P2;SDS_P1;SDS_P2;PMS_P1;PMS_P2;Temp;Humidity;BMP_temperature;BMP_pressure;BME280_temperature;BME280_humidity;BME280_pressure;Samples;Min_cycle;Max_cycle;Signal;HPM_P1;HPM_P2
2022/11/01 00:01:51;;;;;;;8.43;3.92;;;;;;;19.05;58.48;100644.03;5047450;28;20666;-41
2022/11/01 00:04:17;;;;;;;5.85;4.03;;;;;;;19.06;58.49;100640.47;5047155;28;20033;-41
2022/11/01 00:06:43;;;;;;;10.60;4.20;;;;;;;19.04;58.46;100627.41;5046487;28;20904;-40
2022/11/01 00:09:09;;;;;;;6.40;3.60;;;;;;;19.05;58.59;100625.59;5047235;28;20044;-41
2022/11/01 00:11:34;;;;;;;7.90;3.67;;;;;;;19.05;58.72;100625.59;5055149;28;20035;-41
2022/11/01 00:13:59;;;;;;;9.65;3.95;;;;;;;19.05;58.42;100623.81;5048994;28;20036;-41
2022/11/01 00:16:25;;;;;;;7.00;3.67;;;;;;;19.04;58.77;100616.88;5051040;28;20040;-40
2022/11/01 00:18:50;;;;;;;7.97;4.22;;;;;;;19.06;58.58;100600.97;5047349;28;20642;-41
2022/11/01 00:21:17;;;;;;;8.10;4.22;;;;;;;19.04;58.56;100598.47;5051624;28;20097;-42
2022/11/01 00:23:43;;;;;;;7.47;4.00;;;;;;;19.05;58.64;100594.88;5047977;28;20036;-43
2022/11/01 00:26:14;;;;;;;5.90;3.17;;;;;;;19.04;58.48;100590.56;5046534;28;20021;-42
2022/11/01 00:28:39;;;;;;;7.93;3.65;;;;;;;19.05;58.69;100589.59;5051862;28;20039;-42
2022/11/01 00:31:04;;;;;;;7.53;3.95;;;;;;;19.04;58.60;100589.72;5044637;28;20068;-41
2022/11/01 00:33:30;;;;;;;6.97;3.80;;;;;;;19.04;58.72;100584.44;5045600;28;20036;-41
2022/11/01 00:35:59;;;;;;;9.63;4.32;;;;;;;19.05;58.44;100589.59;5043145;28;20643;-42
2022/11/01 00:38:25;;;;;;;6.18;3.72;;;;;;;19.05;58.67;100580.84;5049072;28;20039;-43
2022/11/01 00:40:50;;;;;;;10.40;3.70;;;;;;;19.05;58.56;100581.69;5047730;28;20028;-41
2022/11/01 00:43:15;;;;;;;10.07;3.70;;;;;;;19.05;58.48;100580.84;5049457;28;20043;-41
2022/11/01 00:45:44;;;;;;;7.75;4.03;;;;;;;19.06;58.55;100579.94;5042634;28;20053;-43
2022/11/01 00:48:11;;;;;;;6.90;4.00;;;;;;;19.05;58.70;100592.25;5047499;28;20072;-42
2022/11/01 00:50:37;;;;;;;7.05;3.80;;;;;;;19.05;58.84;100601.91;5043044;28;20040;-42
2022/11/01 00:53:03;;;;;;;18.10;4.13;;;;;;;19.06;58.77;100614.16;5046574;28;20504;-42
2022/11/01 00:55:28;;;;;;;9.32;3.70;;;;;;;19.05;58.64;100613.28;5052855;28;20032;-42
2022/11/01 00:57:53;;;;;;;5.60;3.75;;;;;;;19.04;58.83;100624.78;5049121;28;20033;-41
2022/11/01 01:00:19;;;;;;;6.32;3.33;;;;;;;19.04;58.63;100624.78;5044753;28;20048;-42
2022/11/01 01:02:44;;;;;;;9.25;3.80;;;;;;;19.06;58.62;100646.59;5044880;28;20036;-42
2022/11/01 01:05:10;;;;;;;6.43;3.40;;;;;;;19.06;58.75;100641.34;5051688;28;20036;-42
2022/11/01 01:07:36;;;;;;;5.57;3.42;;;;;;;19.06;58.61;100633.44;5047164;28;20836;-41
2022/11/01 01:10:03;;;;;;;8.27;3.50;;;;;;;19.06;58.70;100636.06;5048680;28;20045;-43
2022/11/01 01:12:29;;;;;;;9.95;3.65;;;;;;;19.06;58.66;100635.22;5052068;28;20103;-42
2022/11/01 01:14:54;;;;;;;7.05;3.45;;;;;;;19.06;58.79;100636.06;5046285;28;20135;-42
2022/11/01 01:17:20;;;;;;;9.38;3.83;;;;;;;19.06;58.47;100622.06;5050205;28;20753;-41
2022/11/01 01:19:45;;;;;;;6.70;3.70;;;;;;;19.05;58.69;100622.97;5044387;28;20036;-42
2022/11/01 01:22:10;;;;;;;7.05;3.30;;;;;;;19.05;58.69;100618.56;5050106;28;20052;-42
2022/11/01 01:24:36;;;;;;;9.18;3.42;;;;;;;19.05;58.82;100617.72;5050363;28;20029;-42
2022/11/01 01:27:02;;;;;;;6.00;3.58;;;;;;;19.04;58.66;100616.03;5045107;28;20052;-43
2022/11/01 01:29:28;;;;;;;9.73;3.47;;;;;;;19.05;58.66;100617.72;5049472;28;20588;-43
2022/11/01 01:31:53;;;;;;;5.32;3.50;;;;;;;19.05;58.62;100599.28;5048900;28;20032;-41
2022/11/01 01:34:18;;;;;;;7.22;3.65;;;;;;;19.04;58.63;100601.09;5050842;28;20123;-42
2022/11/01 01:36:45;;;;;;;6.15;3.92;;;;;;;19.04;58.79;100601.09;5047591;28;20151;-41
2022/11/01 01:39:10;;;;;;;5.85;3.45;;;;;;;19.04;58.78;100590.56;5049344;28;20045;-42
2022/11/01 01:44:51;;;;;;;7.03;3.60;;;;;;;19.04;58.80;100602.88;5046632;28;20071;-42
2022/11/01 01:47:34;;;;;;;5.47;3.45;;;;;;;19.04;58.69;100590.56;5048294;28;20068;-43
2022/11/01 01:50:19;;;;;;;9.77;4.03;;;;;;;19.04;58.77;100592.34;5049883;28;20437;-42
2022/11/01 01:52:50;;;;;;;6.57;3.30;;;;;;;19.03;58.63;100585.38;5049219;28;20041;-43
2022/11/01 01:55:21;;;;;;;6.00;3.30;;;;;;;19.04;58.81;100581.81;5050250;28;20036;-42
2022/11/01 01:57:47;;;;;;;9.23;3.88;;;;;;;19.04;58.69;100580.03;5048410;28;20501;-41
2022/11/01 02:00:13;;;;;;;5.80;3.47;;;;;;;19.03;58.71;100583.59;5050867;28;20033;-42
2022/11/01 02:02:40;;;;;;;3.78;3.05;;;;;;;19.04;58.71;100576.53;5049432;28;20060;-44
2022/11/01 02:05:24;;;;;;;5.25;3.65;;;;;;;19.03;58.72;100580.09;5051438;28;20044;-43
2022/11/01 02:07:49;;;;;;;6.65;3.53;;;;;;;19.05;58.79;100591.38;5050525;28;20047;-42
2022/11/01 02:10:15;;;;;;;9.25;3.50;;;;;;;19.04;58.66;100595.81;5046421;28;20405;-42
2022/11/01 02:12:46;;;;;;;7.28;3.42;;;;;;;19.05;58.78;100605.41;5051631;28;20051;-42
2022/11/01 02:15:13;;;;;;;5.57;3.70;;;;;;;19.05;59.08;100591.38;5056172;28;20435;-43
2022/11/01 02:17:50;;;;;;;5.95;3.38;;;;;;;19.04;58.74;100600.25;5050854;28;20032;-41
2022/11/01 02:20:33;;;;;;;6.35;3.25;;;;;;;19.04;58.74;100609.00;5049312;28;20056;-42
2022/11/01 02:23:15;;;;;;;12.50;3.25;;;;;;;19.03;58.78;100607.28;5054630;28;20068;-42
2022/11/01 02:26:05;;;;;;;4.50;2.90;;;;;;;19.03;58.84;100617.81;5050304;28;20039;-41
2022/11/01 02:28:50;;;;;;;7.72;3.72;;;;;;;19.02;58.71;100610.84;5051177;28;20618;-43
2022/11/01 02:31:39;;;;;;;5.90;3.30;;;;;;;19.04;58.81;100603.72;5050042;28;20867;-42
2022/11/01 02:34:31;;;;;;;6.85;3.28;;;;;;;19.03;58.89;100594.13;5050275;28;21909;-43
2022/11/01 02:37:18;;;;;;;6.70;2.97;;;;;;;19.04;58.78;100597.59;5047937;28;20045;-42
2022/11/01 02:39:54;;;;;;;6.80;3.17;;;;;;;19.02;58.76;100597.69;5045382;28;20094;-43
2022/11/01 02:42:30;;;;;;;4.25;2.90;;;;;;;19.04;58.70;100593.19;5048469;28;20120;-42
2022/11/01 02:45:02;;;;;;;6.13;3.50;;;;;;;19.02;58.69;100597.69;5052640;28;20127;-42
2022/11/01 02:47:30;;;;;;;5.30;3.25;;;;;;;19.03;58.60;100615.19;5045933;28;20036;-42
2022/11/01 02:50:00;;;;;;;5.63;3.30;;;;;;;19.01;58.58;100606.53;5055323;28;20035;-41
2022/11/01 02:52:29;;;;;;;7.47;3.08;;;;;;;19.03;58.80;100615.19;5051255;28;20043;-42
2022/11/01 02:54:59;;;;;;;4.60;3.38;;;;;;;19.03;58.82;100623.09;5067834;28;21663;-42
2022/11/01 02:57:33;;;;;;;4.80;2.63;;;;;;;19.02;58.79;100612.63;5052971;28;20435;-42
2022/11/01 03:00:15;;;;;;;5.57;2.92;;;;;;;19.04;58.77;100618.66;5049224;28;20147;-42
2022/11/01 03:02:43;;;;;;;5.55;3.30;;;;;;;19.03;58.67;100617.81;5052623;28;20147;-41
2022/11/01 03:05:20;;;;;;;5.57;3.30;;;;;;;19.03;58.95;100623.09;5050766;28;20105;-42
2022/11/01 03:07:49;;;;;;;4.13;3.05;;;;;;;19.01;58.88;100619.69;5056767;28;20397;-42
2022/11/01 03:10:16;;;;;;;5.53;3.10;;;;;;;19.02;58.87;100624.00;5054337;28;20036;-42
2022/11/01 03:13:09;;;;;;;4.10;3.20;;;;;;;19.03;58.70;100635.38;5050301;28;20119;-42
2022/11/01 03:15:42;;;;;;;4.80;3.17;;;;;;;19.03;58.71;100632.75;5053049;28;20044;-42
2022/11/01 03:18:16;;;;;;;6.10;3.42;;;;;;;19.03;58.77;100632.75;5050846;28;20571;-41
2022/11/01 03:20:55;;;;;;;4.07;3.13;;;;;;;19.02;58.68;100628.41;5070530;28;20508;-43
2022/11/01 03:23:37;;;;;;;6.00;2.97;;;;;;;19.02;58.69;100626.63;5052417;28;20082;-41
2022/11/01 03:26:08;;;;;;;4.38;3.40;;;;;;;19.01;58.73;100627.59;5049345;28;20114;-41
2022/11/01 03:28:41;;;;;;;3.88;2.72;;;;;;;19.02;58.83;100637.16;5059439;28;20033;-42
2022/11/01 03:31:18;;;;;;;4.93;3.47;;;;;;;19.02;58.87;100631.91;5051913;28;20171;-42
2022/11/01 03:33:47;;;;;;;4.20;2.90;;;;;;;19.03;58.88;100632.75;5050742;28;20568;-42
2022/11/01 03:36:18;;;;;;;4.63;2.95;;;;;;;19.02;58.78;100631.91;5049346;28;20045;-42
2022/11/01 03:38:51;;;;;;;5.10;2.88;;;;;;;19.02;58.76;100634.53;5048872;28;20120;-42
2022/11/01 03:41:19;;;;;;;6.00;3.22;;;;;;;19.02;58.89;100647.69;5052286;28;20250;-43
2022/11/01 03:43:46;;;;;;;5.65;3.15;;;;;;;19.01;58.88;100648.66;5054430;28;20033;-42
2022/11/01 03:46:12;;;;;;;4.72;3.20;;;;;;;19.01;58.90;100643.41;5049950;28;20417;-42
2022/11/01 03:48:39;;;;;;;4.57;3.15;;;;;;;19.01;58.95;100648.66;5052487;28;20036;-42
2022/11/01 03:51:04;;;;;;;4.70;3.00;;;;;;;19.01;59.01;100642.53;5049467;28;20040;-42
2022/11/01 03:53:30;;;;;;;5.10;3.03;;;;;;;19.01;58.95;100655.69;5050104;28;20036;-41
2022/11/01 03:55:55;;;;;;;4.57;2.63;;;;;;;19.00;58.90;100657.47;5049663;28;20032;-42
2022/11/01 03:58:20;;;;;;;5.10;3.08;;;;;;;19.01;58.88;100655.69;5052954;28;20033;-42
2022/11/01 04:00:46;;;;;;;4.18;2.80;;;;;;;19.02;59.01;100660.00;5052582;28;20449;-43
2022/11/01 04:03:12;;;;;;;4.53;2.83;;;;;;;19.00;59.04;100665.38;5048483;28;20037;-42
2022/11/01 04:05:39;;;;;;;5.97;3.13;;;;;;;19.02;58.94;100665.28;5045543;28;20078;-42
2022/11/01 04:08:06;;;;;;;6.15;3.28;;;;;;;19.01;58.94;100658.34;5050278;28;20043;-42
2022/11/01 04:10:31;;;;;;;5.20;2.58;;;;;;;19.01;58.88;100658.34;5049555;28;20037;-43
2022/11/01 04:12:58;;;;;;;5.72;3.17;;;;;;;19.02;58.96;100663.50;5044180;28;20106;-41
2022/11/01 04:21:10;;;;;;;4.57;3.17;;;;;;;19.02;59.29;100673.19;5041263;28;20075;-41
2022/11/01 04:23:36;;;;;;;3.83;2.88;;;;;;;19.02;59.01;100679.28;5048443;28;20028;-42
2022/11/01 04:26:04;;;;;;;4.13;2.92;;;;;;;19.02;58.89;100675.81;5049801;28;20024;-43
2022/11/01 04:28:30;;;;;;;6.70;2.75;;;;;;;19.02;59.10;100687.19;5044425;28;20461;-41
2022/11/01 04:30:56;;;;;;;7.38;3.08;;;;;;;19.01;58.97;100680.25;5047658;28;20045;-41
2022/11/01 04:33:21;;;;;;;3.42;2.67;;;;;;;19.03;59.13;100683.63;5047212;28;20100;-42
2022/11/01 04:35:47;;;;;;;3.72;2.80;;;;;;;19.02;59.06;100699.50;5043293;28;20557;-42
2022/11/01 04:38:13;;;;;;;6.97;2.75;;;;;;;19.03;58.81;100698.56;5049074;28;20028;-41
2022/11/01 04:40:39;;;;;;;4.70;2.70;;;;;;;19.03;59.05;100703.84;5042758;28;20037;-42
2022/11/01 04:43:05;;;;;;;4.97;3.10;;;;;;;19.03;58.91;100709.09;5046821;28;20040;-42
2022/11/01 04:45:30;;;;;;;5.75;2.90;;;;;;;19.03;59.03;100717.00;5046504;28;20754;-41
2022/11/01 04:48:15;;;;;;;4.50;2.92;;;;;;;19.02;59.17;100715.28;5049371;28;20112;-42
2022/11/01 04:50:42;;;;;;;7.47;2.92;;;;;;;19.01;59.16;100718.88;5045514;28;20047;-42
2022/11/01 04:53:08;;;;;;;6.72;2.72;;;;;;;19.01;59.10;100721.53;5052417;28;20029;-42
2022/11/01 04:55:34;;;;;;;5.85;2.65;;;;;;;19.01;59.19;100727.63;5048163;28;20702;-42
2022/11/01 04:57:59;;;;;;;5.88;2.92;;;;;;;19.01;59.16;100732.91;5052307;28;20270;-41
2022/11/01 05:00:25;;;;;;;5.18;2.38;;;;;;;19.01;58.96;100738.16;5050201;28;20111;-42
2022/11/01 05:02:51;;;;;;;3.67;2.67;;;;;;;19.01;58.95;100734.69;5042518;28;20040;-42
2022/11/01 05:05:17;;;;;;;6.65;2.90;;;;;;;19.01;59.19;100737.31;5043221;28;20692;-43
2022/11/01 05:07:43;;;;;;;4.65;3.20;;;;;;;19.01;59.25;100737.31;5039366;28;20052;-41
2022/11/01 05:10:09;;;;;;;3.72;2.45;;;;;;;19.02;59.04;100739.00;5048818;28;20033;-43
2022/11/01 05:12:35;;;;;;;6.30;2.90;;;;;;;19.00;59.14;100736.47;5046232;28;20043;-42
2022/11/01 05:15:00;;;;;;;5.60;3.00;;;;;;;19.00;59.11;100739.09;5037877;28;20040;-41
2022/11/01 05:17:26;;;;;;;2.83;2.35;;;;;;;19.00;59.10;100738.25;5038409;28;20337;-42
2022/11/01 05:19:51;;;;;;;5.55;2.88;;;;;;;19.01;59.18;100737.31;5046622;28;20051;-42
2022/11/01 05:22:17;;;;;;;4.97;2.47;;;;;;;19.00;59.25;100744.34;5043775;28;20056;-42
2022/11/01 05:24:43;;;;;;;4.82;2.55;;;;;;;19.00;59.12;100732.97;5043309;28;20045;-42
2022/11/01 05:27:08;;;;;;;5.80;2.90;;;;;;;19.00;59.15;100736.47;5044500;28;20033;-42
2022/11/01 05:29:34;;;;;;;3.05;2.38;;;;;;;18.99;59.13;100742.66;5045251;28;20029;-42
2022/11/01 05:31:59;;;;;;;5.15;2.78;;;;;;;19.00;59.15;100744.34;5046614;28;20029;-43
2022/11/01 05:34:25;;;;;;;3.85;2.55;;;;;;;19.01;59.18;100750.47;5042060;28;20114;-42
2022/11/01 05:36:50;;;;;;;5.90;3.00;;;;;;;19.00;59.16;100761.94;5042715;28;20041;-42
2022/11/01 05:39:16;;;;;;;3.72;2.78;;;;;;;19.00;59.22;100764.56;5039945;28;20124;-42
2022/11/01 05:41:41;;;;;;;4.85;3.00;;;;;;;18.99;59.38;100768.97;5041527;28;20029;-41
2022/11/01 05:44:06;;;;;;;4.75;2.35;;;;;;;19.02;59.29;100774.06;5047152;28;20029;-42
2022/11/01 05:46:32;;;;;;;3.72;2.45;;;;;;;19.07;58.84;100779.94;5049138;28;20119;-42
2022/11/01 05:48:57;;;;;;;5.32;2.80;;;;;;;19.11;58.82;100785.88;5045795;28;20045;-41
2022/11/01 05:51:23;;;;;;;4.28;2.75;;;;;;;19.13;58.69;100792.75;5046347;28;20078;-42
2022/11/01 05:53:49;;;;;;;3.45;2.40;;;;;;;19.16;58.53;100800.47;5041420;28;20777;-42
2022/11/01 05:56:15;;;;;;;4.25;2.50;;;;;;;19.19;58.65;100800.31;5046581;28;20092;-43
2022/11/01 05:58:40;;;;;;;5.70;2.97;;;;;;;19.20;58.54;100799.38;5046347;28;20052;-42
2022/11/01 06:01:06;;;;;;;6.28;2.67;;;;;;;19.23;58.60;100811.53;5040357;28;20044;-42
2022/11/01 06:03:32;;;;;;;3.72;2.17;;;;;;;19.25;58.55;100814.94;5045224;28;20035;-42
2022/11/01 06:05:57;;;;;;;3.20;2.42;;;;;;;19.27;58.45;100813.06;5043790;28;20049;-43
2022/11/01 06:08:23;;;;;;;3.15;2.13;;;;;;;19.26;58.50;100822.75;5044344;28;20037;-42
2022/11/01 06:10:49;;;;;;;4.20;2.95;;;;;;;19.26;58.60;100828.00;5042193;28;20040;-43
2022/11/01 06:13:15;;;;;;;3.97;2.50;;;;;;;19.23;58.73;100828.19;5042532;28;20071;-42
2022/11/01 06:15:40;;;;;;;3.53;2.60;;;;;;;19.28;58.53;100829.72;5043991;28;20071;-43
2022/11/01 06:18:05;;;;;;;3.53;2.50;;;;;;;19.29;58.59;100834.06;5039452;28;20035;-44
2022/11/01 06:20:31;;;;;;;3.83;2.40;;;;;;;19.31;58.40;100832.22;5045351;28;20152;-42
2022/11/01 06:22:58;;;;;;;6.38;2.42;;;;;;;19.30;58.44;100843.66;5046663;28;20028;-41
2022/11/01 06:25:25;;;;;;;4.57;2.42;;;;;;;19.32;58.40;100842.66;5042485;28;20592;-42
2022/11/01 06:27:50;;;;;;;4.70;2.17;;;;;;;19.37;58.20;100845.91;5039989;28;20164;-43
2022/11/01 06:30:16;;;;;;;2.97;2.28;;;;;;;19.47;57.96;100846.19;5041574;28;20035;-42
2022/11/01 06:32:41;;;;;;;2.90;1.90;;;;;;;19.53;57.84;100864.31;5040581;28;20509;-43
2022/11/01 06:35:07;;;;;;;3.40;2.38;;;;;;;19.60;57.59;100869.16;5044159;28;20036;-42
2022/11/01 06:37:33;;;;;;;4.40;2.40;;;;;;;19.59;57.68;100872.72;5047695;28;20040;-42
2022/11/01 06:39:58;;;;;;;4.15;2.55;;;;;;;19.60;57.63;100871.78;5043298;28;20037;-43
2022/11/01 06:42:23;;;;;;;3.08;2.10;;;;;;;19.62;57.80;100887.50;5049378;28;20033;-43
2022/11/01 06:44:49;;;;;;;3.38;2.00;;;;;;;19.61;57.66;100883.19;5047890;28;20139;-42
2022/11/01 06:47:14;;;;;;;4.68;2.40;;;;;;;19.61;57.71;100897.19;5048255;28;20068;-42
2022/11/01 06:49:39;;;;;;;4.43;2.40;;;;;;;19.60;57.68;100910.47;5049469;28;20083;-42
2022/11/01 06:52:05;;;;;;;2.25;1.85;;;;;;;19.58;57.80;100902.63;5047163;28;20475;-47
2022/11/01 06:54:31;;;;;;;4.50;2.58;;;;;;;19.58;57.83;100907.91;5048217;28;20674;-47
2022/11/01 06:56:57;;;;;;;6.75;2.95;;;;;;;19.57;57.95;100915.91;5050115;28;20044;-46
2022/11/01 06:59:23;;;;;;;3.17;2.42;;;;;;;19.55;58.03;100926.50;5047188;28;20896;-46
2022/11/01 07:01:50;;;;;;;3.13;2.10;;;;;;;19.54;58.06;100940.66;5052344;28;20060;-46
2022/11/01 07:04:16;;;;;;;3.63;1.92;;;;;;;19.53;58.04;100951.25;5049281;28;20518;-47
2022/11/01 07:06:41;;;;;;;6.22;2.63;;;;;;;19.51;58.17;100955.78;5051118;28;20052;-46
2022/11/01 07:09:07;;;;;;;6.22;2.78;;;;;;;19.50;58.13;100957.56;5050699;28;20033;-46
2022/11/01 07:11:32;;;;;;;5.32;2.22;;;;;;;19.51;58.25;100963.69;5051482;28;20048;-47
2022/11/01 07:13:58;;;;;;;3.10;2.30;;;;;;;19.53;58.14;100974.97;5049649;28;20056;-46
2022/11/01 07:16:24;;;;;;;3.25;2.42;;;;;;;19.54;58.15;100974.91;5045233;28;20583;-48
2022/11/01 07:18:50;;;;;;;3.20;2.10;;;;;;;19.51;58.20;100985.59;5052146;28;20038;-48
2022/11/01 07:21:16;;;;;;;5.78;2.40;;;;;;;19.52;58.25;100992.56;5047957;28;20052;-47
2022/11/01 07:23:41;;;;;;;3.05;2.30;;;;;;;19.52;58.25;100994.38;5046331;28;20079;-47
2022/11/01 07:26:08;;;;;;;3.55;2.30;;;;;;;19.52;58.09;101004.91;5052950;28;20489;-47
2022/11/01 07:28:34;;;;;;;4.47;2.22;;;;;;;19.54;58.17;101016.22;5055224;28;20182;-46
2022/11/01 07:30:59;;;;;;;2.97;1.83;;;;;;;19.55;57.96;101012.66;5043064;28;20052;-47
2022/11/01 07:33:25;;;;;;;3.90;2.20;;;;;;;19.55;58.13;101024.00;5050957;28;20032;-48
2022/11/01 07:35:51;;;;;;;5.55;2.05;;;;;;;19.54;58.07;101035.50;5048676;28;20074;-47
2022/11/01 07:38:17;;;;;;;3.58;2.03;;;;;;;19.52;58.29;101036.53;5049631;28;20182;-46
2022/11/01 07:40:43;;;;;;;3.13;2.08;;;;;;;19.56;58.16;101045.94;5052148;28;20039;-46
2022/11/01 07:43:09;;;;;;;3.30;2.00;;;;;;;19.53;57.99;101049.59;5047412;28;20045;-50
2022/11/01 07:45:34;;;;;;;3.30;2.03;;;;;;;19.51;58.16;101046.22;5052094;28;20139;-47
2022/11/01 07:48:02;;;;;;;3.47;2.08;;;;;;;19.53;57.83;101056.66;5047848;28;20049;-46
2022/11/01 07:50:30;;;;;;;4.38;2.20;;;;;;;19.54;57.72;101061.00;5048133;28;20555;-47
2022/11/01 07:53:05;;;;;;;3.85;2.20;;;;;;;19.71;57.85;101051.25;5047763;28;20038;-46
2022/11/01 07:55:30;;;;;;;3.90;2.30;;;;;;;19.71;57.90;101067.06;5050278;28;20036;-46
2022/11/01 07:57:56;;;;;;;10.00;2.15;;;;;;;19.73;57.65;101069.59;5053829;28;20067;-45
2022/11/01 08:00:22;;;;;;;4.30;1.80;;;;;;;19.73;57.61;101074.88;5049301;28;20074;-46
2022/11/01 08:02:47;;;;;;;4.18;1.77;;;;;;;19.73;57.61;101074.88;5064881;28;20047;-45
2022/11/01 08:05:13;;;;;;;3.83;1.85;;;;;;;19.74;57.50;101076.59;5046562;28;20834;-45
2022/11/01 08:07:39;;;;;;;3.53;2.03;;;;;;;19.75;57.38;101079.16;5050004;28;20586;-45
2022/11/01 08:10:13;;;;;;;3.78;1.95;;;;;;;19.74;57.55;101082.72;5043022;28;20068;-48
2022/11/01 08:12:39;;;;;;;;;;;;;;;19.74;57.22;101076.59;5047014;28;20044;-47
2022/11/01 08:15:05;;;;;;;4.68;1.73;;;;;;;19.74;57.37;101077.44;5045845;28;19920;-45
2022/11/01 08:17:33;;;;;;;2.63;1.65;;;;;;;19.73;57.36;101081.00;5041339;28;20033;-46
2022/11/01 08:19:58;;;;;;;3.38;2.03;;;;;;;19.75;57.26;101080.94;5043805;28;20074;-46
2022/11/01 08:22:24;;;;;;;3.45;2.42;;;;;;;19.75;57.20;101086.22;5044765;28;20088;-45
2022/11/01 08:24:49;;;;;;;4.68;2.03;;;;;;;19.72;57.25;101095.13;5045032;28;20166;-45
2022/11/01 08:27:14;;;;;;;3.25;2.00;;;;;;;19.75;57.22;101096.75;5051162;28;20047;-46
2022/11/01 08:29:40;;;;;;;5.15;1.77;;;;;;;19.75;56.84;101107.31;5054830;28;20033;-45
2022/11/01 08:32:05;;;;;;;2.45;1.88;;;;;;;19.75;57.24;101115.22;5050132;28;20041;-45
2022/11/01 08:34:30;;;;;;;2.40;1.90;;;;;;;19.73;57.15;101115.28;5046323;28;20429;-45
2022/11/01 08:36:57;;;;;;;8.25;2.15;;;;;;;19.74;57.33;101126.69;5051796;28;20097;-47
2022/11/01 08:39:23;;;;;;;2.30;1.60;;;;;;;19.74;57.39;101124.91;5050755;28;20116;-46
2022/11/01 08:41:49;;;;;;;3.75;1.83;;;;;;;19.74;57.29;101122.25;5044604;28;20040;-46
2022/11/01 08:44:16;;;;;;;2.75;1.58;;;;;;;19.78;57.13;101129.09;5044789;28;20048;-45
2022/11/01 08:46:42;;;;;;;3.65;2.00;;;;;;;19.79;57.16;101138.69;5042410;28;21272;-46
2022/11/01 08:49:08;;;;;;;3.40;1.70;;;;;;;19.78;57.25;101138.78;5044471;28;20037;-47
2022/11/01 08:51:34;;;;;;;4.05;1.95;;;;;;;19.76;57.29;101133.56;5041405;28;20085;-46
2022/11/01 08:53:59;;;;;;;7.63;1.77;;;;;;;19.79;56.98;101137.81;5046221;28;20082;-45
2022/11/01 08:56:26;;;;;;;6.10;2.10;;;;;;;19.77;57.14;101145.81;5048800;28;20032;-46
2022/11/01 08:58:53;;;;;;;8.82;1.98;;;;;;;19.82;57.00;101147.38;5047045;28;20120;-50
2022/11/01 09:01:19;;;;;;;5.88;1.83;;;;;;;19.89;57.98;101154.00;5043606;28;20417;-48
2022/11/01 09:03:44;;;;;;;6.47;2.22;;;;;;;19.93;58.62;101153.78;5044075;28;20037;-48
2022/11/01 09:06:10;;;;;;;7.00;2.42;;;;;;;19.96;58.51;101158.03;5046523;28;20143;-46
2022/11/01 09:08:36;;;;;;;6.25;2.00;;;;;;;19.92;58.03;101151.19;5040257;28;20466;-46
2022/11/01 09:11:01;;;;;;;9.05;2.40;;;;;;;19.91;57.70;101157.41;5054086;28;20032;-46
2022/11/01 09:13:26;;;;;;;7.40;2.10;;;;;;;19.88;57.77;101161.06;5044062;28;20563;-48
2022/11/01 09:15:52;;;;;;;7.45;2.60;;;;;;;19.89;57.65;101160.13;5043797;28;20048;-46
2022/11/01 09:18:17;;;;;;;7.97;2.22;;;;;;;19.85;57.88;101158.59;5043900;28;20068;-46
2022/11/01 09:20:42;;;;;;;7.03;2.00;;;;;;;19.88;57.64;101166.34;5041394;28;20472;-47
2022/11/01 09:23:08;;;;;;;10.68;2.88;;;;;;;19.88;57.63;101162.88;5048168;28;20041;-47
2022/11/01 09:25:33;;;;;;;7.25;2.30;;;;;;;19.86;57.59;101170.00;5045497;28;20064;-47
2022/11/01 09:27:59;;;;;;;11.57;2.58;;;;;;;19.85;57.66;101179.69;5041851;28;20124;-45
2022/11/01 09:30:25;;;;;;;7.88;1.95;;;;;;;19.86;57.71;101181.38;5047585;28;20717;-46
2022/11/01 09:32:50;;;;;;;14.05;2.10;;;;;;;19.87;57.62;101180.47;5041640;28;20464;-46
2022/11/01 09:35:17;;;;;;;9.63;2.40;;;;;;;19.88;57.70;101178.69;5039744;28;20021;-46
2022/11/01 09:37:42;;;;;;;9.70;2.85;;;;;;;19.88;57.60;101181.31;5044462;28;20033;-46
2022/11/01 09:40:09;;;;;;;9.45;2.03;;;;;;;19.87;57.64;101185.75;5044547;28;20781;-47
2022/11/01 09:42:42;;;;;;;6.30;2.13;;;;;;;19.88;57.57;101183.97;5041776;28;20136;-46
2022/11/01 09:45:20;;;;;;;4.35;2.25;;;;;;;19.86;58.07;101181.38;5051585;28;20521;-47
2022/11/01 09:47:54;;;;;;;6.20;1.88;;;;;;;19.87;57.72;101182.25;5039858;28;20556;-46
2022/11/01 09:50:24;;;;;;;;;;;;;;;19.87;57.79;101187.53;5048001;28;20041;-45
2022/11/01 09:52:51;;;;;;;7.88;1.80;;;;;;;19.84;57.75;101183.25;5047072;28;21494;-45
2022/11/01 09:55:40;;;;;;;6.85;2.08;;;;;;;19.87;57.72;101180.47;5049380;28;20126;-46
2022/11/01 09:58:18;;;;;;;3.97;1.80;;;;;;;19.85;57.73;101186.75;5043444;28;20143;-47
2022/11/01 10:01:08;;;;;;;3.95;1.92;;;;;;;19.86;57.74;101186.66;5046670;28;20817;-45
2022/11/01 10:03:48;;;;;;;7.55;2.20;;;;;;;19.86;57.59;101191.94;5045519;28;20122;-46
2022/11/01 10:06:21;;;;;;;7.85;2.25;;;;;;;19.86;57.65;101191.06;5043369;28;20499;-46
2022/11/01 10:08:46;;;;;;;6.68;1.92;;;;;;;19.84;57.82;101191.19;5051576;28;20032;-46
2022/11/01 10:11:31;;;;;;;6.65;2.15;;;;;;;19.85;57.67;101190.22;5047505;28;20033;-46
2022/11/01 10:14:11;;;;;;;7.22;1.85;;;;;;;19.84;57.76;101191.19;5046431;28;20062;-48
2022/11/01 10:16:42;;;;;;;3.05;1.63;;;;;;;19.85;57.76;101197.31;5045810;28;20041;-46
2022/11/01 10:19:22;;;;;;;6.00;2.35;;;;;;;19.80;57.85;101195.75;5058525;28;20148;-47
2022/11/01 10:21:49;;;;;;;6.10;2.00;;;;;;;19.81;57.78;101196.59;5046805;28;20045;-48
2022/11/01 10:24:25;;;;;;;5.60;1.52;;;;;;;19.80;57.78;101205.44;5053966;28;20037;-47
2022/11/01 10:26:58;;;;;;;5.50;1.75;;;;;;;19.78;57.93;101212.59;5055946;28;20793;-47
2022/11/01 10:29:32;;;;;;;3.50;2.05;;;;;;;19.76;58.00;101206.53;5047998;28;20092;-44
2022/11/01 10:31:59;;;;;;;9.30;1.83;;;;;;;19.80;57.93;101197.53;5048637;28;20796;-45
2022/11/01 10:34:31;;;;;;;4.00;1.70;;;;;;;19.77;57.75;101195.91;5043722;28;20402;-45
2022/11/01 10:37:13;;;;;;;4.53;1.63;;;;;;;19.75;57.96;101203.06;5045956;28;20037;-47
2022/11/01 10:40:05;;;;;;;2.60;1.50;;;;;;;19.73;57.98;101199.63;5042306;28;20568;-47
2022/11/01 10:42:31;;;;;;;4.22;1.55;;;;;;;19.75;57.98;101200.41;5025491;28;20049;-45
2022/11/01 10:45:06;;;;;;;3.40;1.38;;;;;;;19.72;57.98;101192.66;5049246;28;20045;-46
2022/11/01 10:47:32;;;;;;;5.05;1.88;;;;;;;19.72;57.99;101183.91;5048185;28;20024;-45
2022/11/01 10:50:17;;;;;;;3.47;1.75;;;;;;;19.71;58.00;101195.38;5049352;28;20033;-44
2022/11/01 10:53:05;;;;;;;5.65;2.00;;;;;;;19.70;58.16;101205.06;5046735;28;20125;-44
2022/11/01 10:55:49;;;;;;;4.15;1.77;;;;;;;19.69;58.04;101200.75;5041927;28;20826;-45
2022/11/01 10:58:23;;;;;;;4.30;1.60;;;;;;;19.67;58.10;101199.09;5051426;28;20044;-44
2022/11/01 11:00:50;;;;;;;5.85;1.88;;;;;;;19.69;58.21;101210.44;5049644;28;20500;-44
2022/11/01 11:03:23;;;;;;;5.32;1.85;;;;;;;19.66;58.21;101205.31;5052542;28;20142;-44
2022/11/01 11:05:51;;;;;;;4.20;1.40;;;;;;;19.69;58.20;101210.44;5048144;28;20831;-44
2022/11/01 11:08:19;;;;;;;3.65;1.50;;;;;;;19.66;58.07;101211.44;5049246;28;20926;-46
2022/11/01 11:10:45;;;;;;;4.25;1.90;;;;;;;19.65;58.33;101214.13;5050945;28;20108;-45
2022/11/01 11:13:14;;;;;;;5.80;1.55;;;;;;;19.65;58.15;101207.09;5052156;28;20060;-44
2022/11/01 11:15:48;;;;;;;6.07;1.63;;;;;;;19.64;58.24;101204.56;5048907;28;20100;-44
2022/11/01 11:18:27;;;;;;;3.22;1.38;;;;;;;19.61;58.51;101208.16;5050022;28;20178;-44
2022/11/01 11:20:58;;;;;;;3.03;1.17;;;;;;;19.64;58.19;101209.81;5046166;28;20036;-46
2022/11/01 11:23:26;;;;;;;4.30;1.58;;;;;;;19.61;58.30;101202.06;5050780;28;20044;-44
2022/11/01 11:25:51;;;;;;;4.85;1.67;;;;;;;19.63;58.48;101208.97;5050541;28;21264;-44
2022/11/01 11:28:29;;;;;;;5.97;1.77;;;;;;;19.62;58.40;101206.38;5050838;28;20029;-46
2022/11/01 11:31:09;;;;;;;5.63;1.95;;;;;;;19.59;58.48;101199.50;5048562;28;20088;-45
2022/11/01 11:33:35;;;;;;;2.95;1.50;;;;;;;19.61;58.41;101207.34;5059884;28;20037;-45
2022/11/01 11:36:02;;;;;;;5.63;1.48;;;;;;;19.61;58.40;101207.34;5040162;28;20079;-44
2022/11/01 11:38:45;;;;;;;5.30;1.35;;;;;;;19.59;58.35;101202.13;5044371;28;20041;-41
2022/11/01 11:41:35;;;;;;;3.72;1.65;;;;;;;19.60;58.28;101195.94;5045112;28;20545;-41